sensor_id;sensor_type;location;lat;lon;timestamp;pressure;altitude;pressure_sealevel;temperature;humidity
74045;BME280;62389;51.412;5.436;2023-08-12T00:01:45;101664.38;;;21.14;100.00
74045;BME280;62389;51.412;5.436;2023-08-12T00:04:10;101661.81;;;21.13;100.00
74045;BME280;62389;51.412;5.436;2023-08-12T00:06:40;101656.63;;;21.11;100.00
74045;BME280;62389;51.412;5.436;2023-08-12T00:09:05;101653.13;;;21.11;100.00
74045;BME280;62389;51.412;5.436;2023-08-12T00:11:30;101659.28;;;21.11;100.00
74045;BME280;62389;51.412;5.436;2023-08-12T00:13:56;101660.97;;;21.12;100.00
74045;BME280;62389;51.412;5.436;2023-08-12T00:16:21;101660.97;;;21.12;100.00
74045;BME280;62389;51.412;5.436;2023-08-12T00:18:46;101648.75;;;21.10;100.00
74045;BME280;62389;51.412;5.436;2023-08-12T00:21:12;101652.28;;;21.10;100.00
74045;BME280;62389;51.412;5.436;2023-08-12T00:23:40;101650.56;;;21.09;100.00
74045;BME280;62389;51.412;5.436;2023-08-12T00:26:08;101645.25;;;21.09;100.00
74045;BME280;62389;51.412;5.436;2023-08-12T00:28:34;101648.13;;;21.06;100.00
74045;BME280;62389;51.412;5.436;2023-08-12T00:30:59;101644.25;;;20.99;100.00
74045;BME280;62389;51.412;5.436;2023-08-12T00:33:25;101645.56;;;20.93;100.00
74045;BME280;62389;51.412;5.436;2023-08-12T00:35:50;101636.63;;;20.94;100.00
74045;BME280;62389;51.412;5.436;2023-08-12T00:38:16;101625.13;;;20.94;100.00
74045;BME280;62389;51.412;5.436;2023-08-12T00:40:41;101625.13;;;20.94;100.00
74045;BME280;62389;51.412;5.436;2023-08-12T00:43:06;101621.72;;;20.92;100.00
74045;BME280;62389;51.412;5.436;2023-08-12T00:45:33;101620.03;;;20.91;100.00
74045;BME280;62389;51.412;5.436;2023-08-12T00:47:59;101618.34;;;20.90;100.00
74045;BME280;62389;51.412;5.436;2023-08-12T00:50:25;101616.66;;;20.89;100.00
74045;BME280;62389;51.412;5.436;2023-08-12T00:52:51;101621.13;;;20.88;100.00
74045;BME280;62389;51.412;5.436;2023-08-12T00:55:17;101618.56;;;20.87;100.00
74045;BME280;62389;51.412;5.436;2023-08-12T00:57:43;101617.59;;;20.88;100.00
74045;BME280;62389;51.412;5.436;2023-08-12T01:00:09;101618.56;;;20.87;100.00
74045;BME280;62389;51.412;5.436;2023-08-12T01:02:34;101611.69;;;20.84;100.00
74045;BME280;62389;51.412;5.436;2023-08-12T01:05:00;101617.00;;;20.84;100.00
74045;BME280;62389;51.412;5.436;2023-08-12T01:07:25;101612.53;;;20.85;100.00
74045;BME280;62389;51.412;5.436;2023-08-12T01:09:51;101608.16;;;20.84;100.00
74045;BME280;62389;51.412;5.436;2023-08-12T01:12:31;101599.22;;;20.85;100.00
74045;BME280;62389;51.412;5.436;2023-08-12T01:15:17;101596.66;;;20.83;100.00
74045;BME280;62389;51.412;5.436;2023-08-12T01:17:47;101602.34;;;20.79;100.00
74045;BME280;62389;51.412;5.436;2023-08-12T01:20:20;101594.59;;;20.76;100.00
74045;BME280;62389;51.412;5.436;2023-08-12T01:22:56;101590.34;;;20.73;100.00
74045;BME280;62389;51.412;5.436;2023-08-12T01:25:24;101586.13;;;20.71;100.00
74045;BME280;62389;51.412;5.436;2023-08-12T01:27:49;101583.66;;;20.67;100.00
74045;BME280;62389;51.412;5.436;2023-08-12T01:30:15;101583.16;;;20.62;100.00
74045;BME280;62389;51.412;5.436;2023-08-12T01:32:57;101576.16;;;20.61;100.00
74045;BME280;62389;51.412;5.436;2023-08-12T01:35:33;101571.94;;;20.59;100.00
74045;BME280;62389;51.412;5.436;2023-08-12T01:38:02;101569.16;;;20.60;100.00
74045;BME280;62389;51.412;5.436;2023-08-12T01:40:29;101575.31;;;20.61;100.00
74045;BME280;62389;51.412;5.436;2023-08-12T01:42:56;101565.53;;;20.61;100.00
74045;BME280;62389;51.412;5.436;2023-08-12T01:45:22;101565.88;;;20.57;100.00
74045;BME280;62389;51.412;5.436;2023-08-12T01:47:47;101562.25;;;20.58;100.00
74045;BME280;62389;51.412;5.436;2023-08-12T01:50:15;101562.38;;;20.56;100.00
74045;BME280;62389;51.412;5.436;2023-08-12T01:52:41;101564.31;;;20.54;100.00
74045;BME280;62389;51.412;5.436;2023-08-12T01:55:07;101561.66;;;20.54;100.00
74045;BME280;62389;51.412;5.436;2023-08-12T01:57:33;101565.16;;;20.55;100.00
74045;BME280;62389;51.412;5.436;2023-08-12T01:59:58;101557.25;;;20.53;100.00
74045;BME280;62389;51.412;5.436;2023-08-12T02:02:23;101562.56;;;20.53;100.00
74045;BME280;62389;51.412;5.436;2023-08-12T02:04:49;101557.25;;;20.53;100.00
74045;BME280;62389;51.412;5.436;2023-08-12T02:07:14;101557.50;;;20.50;100.00
74045;BME280;62389;51.412;5.436;2023-08-12T02:09:40;101561.31;;;20.46;100.00
74045;BME280;62389;51.412;5.436;2023-08-12T02:12:05;101551.66;;;20.45;100.00
74045;BME280;62389;51.412;5.436;2023-08-12T02:14:31;101547.41;;;20.42;100.00
74045;BME280;62389;51.412;5.436;2023-08-12T02:16:56;101545.59;;;20.43;100.00
74045;BME280;62389;51.412;5.436;2023-08-12T02:19:21;101539.44;;;20.42;100.00
74045;BME280;62389;51.412;5.436;2023-08-12T02:21:47;101545.09;;;20.38;100.00
74045;BME280;62389;51.412;5.436;2023-08-12T02:24:12;101546.06;;;20.37;100.00
74045;BME280;62389;51.412;5.436;2023-08-12T02:26:38;101536.38;;;20.36;100.00
74045;BME280;62389;51.412;5.436;2023-08-12T02:29:04;101533.94;;;20.33;100.00
74045;BME280;62389;51.412;5.436;2023-08-12T02:31:29;101531.41;;;20.31;100.00
74045;BME280;62389;51.412;5.436;2023-08-12T02:33:55;101535.75;;;20.32;100.00
74045;BME280;62389;51.412;5.436;2023-08-12T02:36:20;101529.59;;;20.32;100.00
74045;BME280;62389;51.412;5.436;2023-08-12T02:38:45;101525.25;;;20.31;100.00
74045;BME280;62389;51.412;5.436;2023-08-12T02:41:11;101523.69;;;20.28;100.00
74045;BME280;62389;51.412;5.436;2023-08-12T02:43:36;101519.31;;;20.27;100.00
74045;BME280;62389;51.412;5.436;2023-08-12T02:46:01;101514.84;;;20.28;100.00
74045;BME280;62389;51.412;5.436;2023-08-12T02:48:27;101516.78;;;20.26;100.00
74045;BME280;62389;51.412;5.436;2023-08-12T02:50:52;101502.66;;;20.25;100.00
74045;BME280;62389;51.412;5.436;2023-08-12T02:53:18;101506.38;;;20.23;100.00
74045;BME280;62389;51.412;5.436;2023-08-12T02:55:46;101508.31;;;20.21;100.00
74045;BME280;62389;51.412;5.436;2023-08-12T02:58:11;101507.47;;;20.20;100.00
74045;BME280;62389;51.412;5.436;2023-08-12T03:00:36;101503.31;;;20.16;100.00
74045;BME280;62389;51.412;5.436;2023-08-12T03:03:02;101494.63;;;20.14;100.00
74045;BME280;62389;51.412;5.436;2023-08-12T03:05:27;101491.84;;;20.15;100.00
74045;BME280;62389;51.412;5.436;2023-08-12T03:07:53;101497.16;;;20.15;100.00
74045;BME280;62389;51.412;5.436;2023-08-12T03:10:18;101493.66;;;20.15;100.00
74045;BME280;62389;51.412;5.436;2023-08-12T03:12:43;101490.16;;;20.14;100.00
74045;BME280;62389;51.412;5.436;2023-08-12T03:15:10;101483.25;;;20.12;100.00
74045;BME280;62389;51.412;5.436;2023-08-12T03:17:35;101477.09;;;20.11;100.00
74045;BME280;62389;51.412;5.436;2023-08-12T03:20:01;101489.66;;;20.09;100.00
74045;BME280;62389;51.412;5.436;2023-08-12T03:22:27;101491.56;;;20.07;100.00
74045;BME280;62389;51.412;5.436;2023-08-12T03:24:52;101486.69;;;20.01;100.00
74045;BME280;62389;51.412;5.436;2023-08-12T03:27:18;101485.84;;;20.01;100.00
74045;BME280;62389;51.412;5.436;2023-08-12T03:29:43;101480.44;;;20.02;100.00
74045;BME280;62389;51.412;5.436;2023-08-12T03:32:09;101468.88;;;20.03;100.00
74045;BME280;62389;51.412;5.436;2023-08-12T03:34:34;101458.47;;;20.00;100.00
74045;BME280;62389;51.412;5.436;2023-08-12T03:36:59;101459.31;;;20.01;100.00
74045;BME280;62389;51.412;5.436;2023-08-12T03:39:25;101465.59;;;20.00;100.00
74045;BME280;62389;51.412;5.436;2023-08-12T03:41:50;101456.03;;;19.97;100.00
74045;BME280;62389;51.412;5.436;2023-08-12T03:44:16;101461.66;;;19.92;100.00
74045;BME280;62389;51.412;5.436;2023-08-12T03:46:41;101461.78;;;19.91;100.00
74045;BME280;62389;51.412;5.436;2023-08-12T03:49:07;101463.59;;;19.90;100.00
74045;BME280;62389;51.412;5.436;2023-08-12T03:51:32;101457.66;;;19.87;100.00
74045;BME280;62389;51.412;5.436;2023-08-12T03:53:58;101459.34;;;19.88;100.00
74045;BME280;62389;51.412;5.436;2023-08-12T03:56:24;101454.91;;;19.88;100.00
74045;BME280;62389;51.412;5.436;2023-08-12T03:58:49;101444.50;;;19.85;100.00
74045;BME280;62389;51.412;5.436;2023-08-12T04:01:14;101440.03;;;19.86;100.00
74045;BME280;62389;51.412;5.436;2023-08-12T04:03:40;101442.47;;;19.89;100.00
74045;BME280;62389;51.412;5.436;2023-08-12T04:06:05;101437.91;;;19.91;100.00
74045;BME280;62389;51.412;5.436;2023-08-12T04:08:30;101436.94;;;19.92;100.00
74045;BME280;62389;51.412;5.436;2023-08-12T04:10:57;101434.28;;;19.92;100.00
74045;BME280;62389;51.412;5.436;2023-08-12T04:13:23;101429.81;;;19.92;100.00
74045;BME280;62389;51.412;5.436;2023-08-12T04:15:50;101428.97;;;19.92;100.00
74045;BME280;62389;51.412;5.436;2023-08-12T04:18:16;101432.59;;;19.91;100.00
74045;BME280;62389;51.412;5.436;2023-08-12T04:20:41;101433.44;;;19.91;100.00
74045;BME280;62389;51.412;5.436;2023-08-12T04:23:07;101420.28;;;19.90;100.00
74045;BME280;62389;51.412;5.436;2023-08-12T04:25:32;101427.41;;;19.89;100.00
74045;BME280;62389;51.412;5.436;2023-08-12T04:27:57;101427.50;;;19.88;100.00
74045;BME280;62389;51.412;5.436;2023-08-12T04:30:23;101441.00;;;19.85;100.00
74045;BME280;62389;51.412;5.436;2023-08-12T04:32:48;101450.16;;;19.81;100.00
74045;BME280;62389;51.412;5.436;2023-08-12T04:35:14;101449.63;;;19.76;100.00
74045;BME280;62389;51.412;5.436;2023-08-12T04:37:39;101440.94;;;19.74;100.00
74045;BME280;62389;51.412;5.436;2023-08-12T04:40:05;101445.09;;;19.65;100.00
74045;BME280;62389;51.412;5.436;2023-08-12T04:42:32;101435.44;;;19.51;100.00
74045;BME280;62389;51.412;5.436;2023-08-12T04:44:58;101433.78;;;19.37;100.00
74045;BME280;62389;51.412;5.436;2023-08-12T04:47:23;101437.19;;;19.27;100.00
74045;BME280;62389;51.412;5.436;2023-08-12T04:49:48;101431.69;;;19.17;100.00
74045;BME280;62389;51.412;5.436;2023-08-12T04:52:14;101436.38;;;19.13;100.00
74045;BME280;62389;51.412;5.436;2023-08-12T04:54:39;101441.34;;;19.05;100.00
74045;BME280;62389;51.412;5.436;2023-08-12T04:57:04;101444.22;;;19.02;100.00
74045;BME280;62389;51.412;5.436;2023-08-12T04:59:30;101432.03;;;19.00;100.00
74045;BME280;62389;51.412;5.436;2023-08-12T05:01:56;101421.53;;;18.98;100.00
74045;BME280;62389;51.412;5.436;2023-08-12T05:04:21;101410.19;;;18.96;100.00
74045;BME280;62389;51.412;5.436;2023-08-12T05:06:46;101396.63;;;18.88;100.00
74045;BME280;62389;51.412;5.436;2023-08-12T05:09:14;101383.78;;;18.82;100.00
74045;BME280;62389;51.412;5.436;2023-08-12T05:11:39;101381.56;;;18.76;100.00
74045;BME280;62389;51.412;5.436;2023-08-12T05:14:04;101375.31;;;18.77;100.00
74045;BME280;62389;51.412;5.436;2023-08-12T05:16:30;101387.63;;;18.78;100.00
74045;BME280;62389;51.412;5.436;2023-08-12T05:18:55;101400.53;;;18.70;100.00
74045;BME280;62389;51.412;5.436;2023-08-12T05:21:20;101401.78;;;18.64;100.00
74045;BME280;62389;51.412;5.436;2023-08-12T05:23:46;101402.22;;;18.58;100.00
74045;BME280;62389;51.412;5.436;2023-08-12T05:26:12;101386.94;;;18.61;100.00
74045;BME280;62389;51.412;5.436;2023-08-12T05:28:37;101392.16;;;18.63;100.00
74045;BME280;62389;51.412;5.436;2023-08-12T05:31:03;101399.03;;;18.66;100.00
74045;BME280;62389;51.412;5.436;2023-08-12T05:33:28;101400.72;;;18.67;100.00
74045;BME280;62389;51.412;5.436;2023-08-12T05:35:53;101388.03;;;18.72;100.00
74045;BME280;62389;51.412;5.436;2023-08-12T05:38:19;101389.50;;;18.76;100.00
74045;BME280;62389;51.412;5.436;2023-08-12T05:40:44;101383.69;;;18.71;100.00
74045;BME280;62389;51.412;5.436;2023-08-12T05:43:09;101384.75;;;18.68;100.00
74045;BME280;62389;51.412;5.436;2023-08-12T05:45:35;101378.59;;;18.68;100.00
74045;BME280;62389;51.412;5.436;2023-08-12T05:48:00;101374.34;;;18.65;100.00
74045;BME280;62389;51.412;5.436;2023-08-12T05:50:25;101373.59;;;18.63;100.00
74045;BME280;62389;51.412;5.436;2023-08-12T05:52:51;101379.75;;;18.63;100.00
74045;BME280;62389;51.412;5.436;2023-08-12T05:55:16;101374.44;;;18.63;100.00
74045;BME280;62389;51.412;5.436;2023-08-12T05:57:41;101378.78;;;18.64;100.00
74045;BME280;62389;51.412;5.436;2023-08-12T06:00:07;101379.50;;;18.67;100.00
74045;BME280;62389;51.412;5.436;2023-08-12T06:02:33;101378.91;;;18.63;100.00
74045;BME280;62389;51.412;5.436;2023-08-12T06:04:58;101371.56;;;18.67;100.00
74045;BME280;62389;51.412;5.436;2023-08-12T06:07:23;101370.63;;;18.68;100.00
74045;BME280;62389;51.412;5.436;2023-08-12T06:09:49;101376.13;;;18.64;100.00
74045;BME280;62389;51.412;5.436;2023-08-12T06:12:15;101371.69;;;18.65;100.00
74045;BME280;62389;51.412;5.436;2023-08-12T06:14:41;101370.63;;;18.68;100.00
74045;BME280;62389;51.412;5.436;2023-08-12T06:17:06;101358.31;;;18.67;100.00
74045;BME280;62389;51.412;5.436;2023-08-12T06:19:32;101360.25;;;18.64;100.00
74045;BME280;62389;51.412;5.436;2023-08-12T06:21:57;101354.22;;;18.62;100.00
74045;BME280;62389;51.412;5.436;2023-08-12T06:24:23;101359.16;;;18.67;100.00
74045;BME280;62389;51.412;5.436;2023-08-12T06:26:48;101352.19;;;18.66;100.00
74045;BME280;62389;51.412;5.436;2023-08-12T06:29:14;101353.03;;;18.67;100.00
74045;BME280;62389;51.412;5.436;2023-08-12T06:31:39;101347.56;;;18.70;100.00
74045;BME280;62389;51.412;5.436;2023-08-12T06:34:04;101343.09;;;18.70;100.00
74045;BME280;62389;51.412;5.436;2023-08-12T06:36:30;101338.44;;;18.74;100.00
74045;BME280;62389;51.412;5.436;2023-08-12T06:38:55;101344.34;;;18.77;100.00
74045;BME280;62389;51.412;5.436;2023-08-12T06:41:21;101341.63;;;18.79;100.00
74045;BME280;62389;51.412;5.436;2023-08-12T06:43:46;101338.13;;;18.78;100.00
74045;BME280;62389;51.412;5.436;2023-08-12T06:46:11;101333.75;;;18.77;100.00
74045;BME280;62389;51.412;5.436;2023-08-12T06:48:37;101334.72;;;18.76;100.00
74045;BME280;62389;51.412;5.436;2023-08-12T06:51:02;101336.41;;;18.77;100.00
74045;BME280;62389;51.412;5.436;2023-08-12T06:53:35;101335.78;;;18.74;100.00
74045;BME280;62389;51.412;5.436;2023-08-12T06:56:00;101333.13;;;18.74;100.00
74045;BME280;62389;51.412;5.436;2023-08-12T06:58:26;101326.75;;;18.76;100.00
74045;BME280;62389;51.412;5.436;2023-08-12T07:00:51;101331.22;;;18.76;100.00
74045;BME280;62389;51.412;5.436;2023-08-12T07:03:18;101332.06;;;18.76;100.00
74045;BME280;62389;51.412;5.436;2023-08-12T07:05:43;101325.72;;;18.79;100.00
74045;BME280;62389;51.412;5.436;2023-08-12T07:08:09;101332.69;;;18.80;100.00
74045;BME280;62389;51.412;5.436;2023-08-12T07:10:38;101335.34;;;18.80;100.00
74045;BME280;62389;51.412;5.436;2023-08-12T07:13:03;101325.47;;;18.82;100.00
74045;BME280;62389;51.412;5.436;2023-08-12T07:15:29;101333.09;;;18.86;100.00
74045;BME280;62389;51.412;5.436;2023-08-12T07:17:54;101332.06;;;18.89;100.00
74045;BME280;62389;51.412;5.436;2023-08-12T07:20:19;101321.44;;;18.89;100.00
74045;BME280;62389;51.412;5.436;2023-08-12T07:22:45;101326.63;;;18.91;100.00
74045;BME280;62389;51.412;5.436;2023-08-12T07:25:10;101325.47;;;18.95;100.00
74045;BME280;62389;51.412;5.436;2023-08-12T07:27:36;101335.09;;;18.96;100.00
74045;BME280;62389;51.412;5.436;2023-08-12T07:30:01;101329.69;;;18.97;100.00
74045;BME280;62389;51.412;5.436;2023-08-12T07:32:26;101329.81;;;18.96;100.00
74045;BME280;62389;51.412;5.436;2023-08-12T07:34:52;101339.69;;;18.94;100.00
74045;BME280;62389;51.412;5.436;2023-08-12T07:37:17;101334.38;;;18.94;100.00
74045;BME280;62389;51.412;5.436;2023-08-12T07:39:43;101330.38;;;18.88;100.00
74045;BME280;62389;51.412;5.436;2023-08-12T07:42:08;101326.75;;;18.89;100.00
74045;BME280;62389;51.412;5.436;2023-08-12T07:44:33;101327.72;;;18.88;100.00
74045;BME280;62389;51.412;5.436;2023-08-12T07:46:59;101327.47;;;18.91;100.00
74045;BME280;62389;51.412;5.436;2023-08-12T07:49:24;101321.75;;;18.97;100.00
74045;BME280;62389;51.412;5.436;2023-08-12T07:51:50;101324.19;;;19.00;100.00
74045;BME280;62389;51.412;5.436;2023-08-12T07:54:15;101318.03;;;19.00;100.00
74045;BME280;62389;51.412;5.436;2023-08-12T07:56:40;101325.88;;;19.01;100.00
74045;BME280;62389;51.412;5.436;2023-08-12T07:59:06;101331.19;;;19.01;100.00
74045;BME280;62389;51.412;5.436;2023-08-12T08:01:31;101333.81;;;19.01;100.00
74045;BME280;62389;51.412;5.436;2023-08-12T08:03:56;101331.19;;;19.01;100.00
74045;BME280;62389;51.412;5.436;2023-08-12T08:06:22;101339.13;;;19.01;100.00
74045;BME280;62389;51.412;5.436;2023-08-12T08:08:49;101342.53;;;19.03;100.00
74045;BME280;62389;51.412;5.436;2023-08-12T08:11:14;101339.88;;;19.03;100.00
74045;BME280;62389;51.412;5.436;2023-08-12T08:13:40;101341.78;;;19.01;100.00
74045;BME280;62389;51.412;5.436;2023-08-12T08:16:05;101343.47;;;19.02;100.00
74045;BME280;62389;51.412;5.436;2023-08-12T08:18:31;101355.16;;;19.00;100.00
74045;BME280;62389;51.412;5.436;2023-08-12T08:20:56;101357.91;;;18.98;100.00
74045;BME280;62389;51.412;5.436;2023-08-12T08:23:21;101354.50;;;18.96;100.00
74045;BME280;62389;51.412;5.436;2023-08-12T08:25:47;101357.47;;;18.92;100.00
74045;BME280;62389;51.412;5.436;2023-08-12T08:28:13;101345.00;;;18.94;100.00
74045;BME280;62389;51.412;5.436;2023-08-12T08:30:38;101351.13;;;18.94;100.00
74045;BME280;62389;51.412;5.436;2023-08-12T08:33:03;101359.38;;;19.02;100.00
74045;BME280;62389;51.412;5.436;2023-08-12T08:35:29;101358.84;;;19.10;100.00
74045;BME280;62389;51.412;5.436;2023-08-12T08:37:55;101347.66;;;19.18;100.00
74045;BME280;62389;51.412;5.436;2023-08-12T08:40:20;101350.44;;;19.29;100.00
74045;BME280;62389;51.412;5.436;2023-08-12T08:42:47;101363.97;;;19.37;100.00
74045;BME280;62389;51.412;5.436;2023-08-12T08:45:17;101366.19;;;19.43;100.00
74045;BME280;62389;51.412;5.436;2023-08-12T08:47:43;101374.34;;;19.40;100.00
74045;BME280;62389;51.412;5.436;2023-08-12T08:50:10;101374.81;;;19.34;100.00
74045;BME280;62389;51.412;5.436;2023-08-12T08:52:36;101376.28;;;19.38;100.00
74045;BME280;62389;51.412;5.436;2023-08-12T08:55:03;101376.56;;;19.46;100.00
74045;BME280;62389;51.412;5.436;2023-08-12T08:57:29;101360.81;;;19.56;100.00
74045;BME280;62389;51.412;5.436;2023-08-12T08:59:55;101360.69;;;19.57;100.00
74045;BME280;62389;51.412;5.436;2023-08-12T09:02:20;101364.88;;;19.61;100.00
74045;BME280;62389;51.412;5.436;2023-08-12T09:04:47;101378.75;;;19.52;100.00
74045;BME280;62389;51.412;5.436;2023-08-12T09:07:13;101384.13;;;19.39;100.00
74045;BME280;62389;51.412;5.436;2023-08-12T09:09:44;101374.81;;;19.34;100.00
74045;BME280;62389;51.412;5.436;2023-08-12T09:12:14;101371.63;;;19.29;100.00
74045;BME280;62389;51.412;5.436;2023-08-12T09:14:40;101392.84;;;19.29;100.00
74045;BME280;62389;51.412;5.436;2023-08-12T09:17:06;101393.06;;;19.26;100.00
74045;BME280;62389;51.412;5.436;2023-08-12T09:19:32;101393.91;;;19.26;100.00
74045;BME280;62389;51.412;5.436;2023-08-12T09:21:58;101397.00;;;19.33;100.00
74045;BME280;62389;51.412;5.436;2023-08-12T09:24:24;101400.22;;;19.49;100.00
74045;BME280;62389;51.412;5.436;2023-08-12T09:26:53;101402.97;;;19.60;100.00
74045;BME280;62389;51.412;5.436;2023-08-12T09:29:32;101403.81;;;19.61;100.00
74045;BME280;62389;51.412;5.436;2023-08-12T09:34:32;101409.81;;;19.39;100.00
74045;BME280;62389;51.412;5.436;2023-08-12T09:36:58;101396.72;;;19.49;100.00
74045;BME280;62389;51.412;5.436;2023-08-12T09:39:23;101403.59;;;19.51;100.00
74045;BME280;62389;51.412;5.436;2023-08-12T09:41:49;101397.28;;;19.41;100.00
74045;BME280;62389;51.412;5.436;2023-08-12T09:44:16;101389.44;;;19.39;100.00
74045;BME280;62389;51.412;5.436;2023-08-12T09:46:41;101394.69;;;19.52;100.00
74045;BME280;62389;51.412;5.436;2023-08-12T09:49:07;101402.56;;;19.54;100.00
74045;BME280;62389;51.412;5.436;2023-08-12T09:51:36;101401.59;;;19.42;100.00
74045;BME280;62389;51.412;5.436;2023-08-12T09:54:02;101401.00;;;19.38;100.00
74045;BME280;62389;51.412;5.436;2023-08-12T09:56:29;101410.97;;;19.35;100.00
74045;BME280;62389;51.412;5.436;2023-08-12T09:58:59;101410.25;;;19.33;100.00
74045;BME280;62389;51.412;5.436;2023-08-12T10:01:26;101412.03;;;19.32;100.00
74045;BME280;62389;51.412;5.436;2023-08-12T10:03:53;101406.63;;;19.34;100.00
74045;BME280;62389;51.412;5.436;2023-08-12T10:06:19;101417.56;;;19.29;100.00
74045;BME280;62389;51.412;5.436;2023-08-12T10:08:48;101414.84;;;19.18;100.00
74045;BME280;62389;51.412;5.436;2023-08-12T10:11:14;101412.19;;;19.05;100.00
74045;BME280;62389;51.412;5.436;2023-08-12T10:13:40;101416.56;;;18.94;100.00
74045;BME280;62389;51.412;5.436;2023-08-12T10:16:06;101423.88;;;18.90;100.00
74045;BME280;62389;51.412;5.436;2023-08-12T10:18:32;101425.13;;;18.97;100.00
74045;BME280;62389;51.412;5.436;2023-08-12T10:20:58;101425.03;;;18.99;100.00
74045;BME280;62389;51.412;5.436;2023-08-12T10:23:25;101424.16;;;19.11;100.00
74045;BME280;62389;51.412;5.436;2023-08-12T10:25:54;101422.78;;;19.18;100.00
74045;BME280;62389;51.412;5.436;2023-08-12T10:28:20;101420.44;;;19.26;100.00
74045;BME280;62389;51.412;5.436;2023-08-12T10:30:46;101418.75;;;19.25;100.00
74045;BME280;62389;51.412;5.436;2023-08-12T10:33:14;101420.94;;;19.31;100.00
74045;BME280;62389;51.412;5.436;2023-08-12T10:35:46;101423.91;;;19.39;100.00
74045;BME280;62389;51.412;5.436;2023-08-12T10:38:14;101417.84;;;19.50;100.00
74045;BME280;62389;51.412;5.436;2023-08-12T10:40:41;101416.25;;;19.60;100.00
74045;BME280;62389;51.412;5.436;2023-08-12T10:43:07;101413.56;;;19.73;100.00
74045;BME280;62389;51.412;5.436;2023-08-12T10:46:02;101419.53;;;19.88;100.00
74045;BME280;62389;51.412;5.436;2023-08-12T10:48:27;101421.97;;;19.91;100.00
74045;BME280;62389;51.412;5.436;2023-08-12T10:50:56;101425.13;;;19.96;100.00
74045;BME280;62389;51.412;5.436;2023-08-12T10:53:31;101424.78;;;20.01;100.00
74045;BME280;62389;51.412;5.436;2023-08-12T10:56:04;101422.00;;;20.02;100.00
74045;BME280;62389;51.412;5.436;2023-08-12T10:58:46;101431.09;;;19.87;100.00
74045;BME280;62389;51.412;5.436;2023-08-12T11:01:18;101428.41;;;19.76;100.00
74045;BME280;62389;51.412;5.436;2023-08-12T11:03:45;101416.09;;;19.75;100.00
74045;BME280;62389;51.412;5.436;2023-08-12T11:06:11;101420.22;;;19.79;100.00
74045;BME280;62389;51.412;5.436;2023-08-12T11:08:36;101426.25;;;19.81;100.00
74045;BME280;62389;51.412;5.436;2023-08-12T11:11:02;101424.56;;;19.80;100.00
74045;BME280;62389;51.412;5.436;2023-08-12T11:13:28;101412.47;;;19.76;100.00
74045;BME280;62389;51.412;5.436;2023-08-12T11:16:06;101422.88;;;19.79;100.00
74045;BME280;62389;51.412;5.436;2023-08-12T11:18:32;101415.00;;;20.01;100.00
74045;BME280;62389;51.412;5.436;2023-08-12T11:20:58;101408.84;;;20.25;100.00
74045;BME280;62389;51.412;5.436;2023-08-12T11:23:23;101418.06;;;20.43;100.00
74045;BME280;62389;51.412;5.436;2023-08-12T11:25:49;101427.31;;;20.50;100.00
74045;BME280;62389;51.412;5.436;2023-08-12T11:28:18;101416.16;;;20.45;100.00
74045;BME280;62389;51.412;5.436;2023-08-12T11:30:45;101418.19;;;20.41;100.00
74045;BME280;62389;51.412;5.436;2023-08-12T11:33:10;101417.94;;;20.33;95.66
74045;BME280;62389;51.412;5.436;2023-08-12T11:35:37;101425.84;;;20.22;100.00
74045;BME280;62389;51.412;5.436;2023-08-12T11:38:04;101423.31;;;20.21;98.78
74045;BME280;62389;51.412;5.436;2023-08-12T11:40:30;101425.84;;;20.22;96.98
74045;BME280;62389;51.412;5.436;2023-08-12T11:42:55;101424.53;;;20.28;93.06
74045;BME280;62389;51.412;5.436;2023-08-12T11:45:25;101421.53;;;20.32;88.80
74045;BME280;62389;51.412;5.436;2023-08-12T11:47:50;101430.00;;;20.37;96.76
74045;BME280;62389;51.412;5.436;2023-08-12T11:50:21;101436.78;;;20.41;87.52
74045;BME280;62389;51.412;5.436;2023-08-12T11:52:48;101425.66;;;20.36;87.29
74045;BME280;62389;51.412;5.436;2023-08-12T11:55:14;101429.00;;;20.27;92.85
74045;BME280;62389;51.412;5.436;2023-08-12T11:57:40;101438.28;;;20.22;88.09
74045;BME280;62389;51.412;5.436;2023-08-12T12:00:10;101427.78;;;20.20;91.28
74045;BME280;62389;51.412;5.436;2023-08-12T12:02:55;101432.00;;;20.23;88.13
74045;BME280;62389;51.412;5.436;2023-08-12T12:05:23;101437.81;;;20.28;89.58
74045;BME280;62389;51.412;5.436;2023-08-12T12:07:50;101433.25;;;20.30;88.23
74045;BME280;62389;51.412;5.436;2023-08-12T12:10:28;101422.88;;;20.38;93.21
74045;BME280;62389;51.412;5.436;2023-08-12T12:12:57;101425.19;;;20.42;88.17
74045;BME280;62389;51.412;5.436;2023-08-12T12:15:22;101428.47;;;20.46;85.92
74045;BME280;62389;51.412;5.436;2023-08-12T12:17:51;101433.00;;;20.57;88.36
74045;BME280;62389;51.412;5.436;2023-08-12T12:20:18;101432.56;;;20.74;88.95
74045;BME280;62389;51.412;5.436;2023-08-12T12:22:44;101432.94;;;20.92;87.42
74045;BME280;62389;51.412;5.436;2023-08-12T12:25:12;101424.00;;;21.04;84.71
74045;BME280;62389;51.412;5.436;2023-08-12T12:27:38;101423.03;;;21.16;86.34
74045;BME280;62389;51.412;5.436;2023-08-12T12:30:08;101441.63;;;21.28;88.34
74045;BME280;62389;51.412;5.436;2023-08-12T12:32:34;101435.88;;;21.34;86.89
74045;BME280;62389;51.412;5.436;2023-08-12T12:35:00;101443.84;;;21.45;88.86
74045;BME280;62389;51.412;5.436;2023-08-12T12:37:25;101441.50;;;21.63;87.34
74045;BME280;62389;51.412;5.436;2023-08-12T12:39:50;101440.63;;;21.85;85.29